createdAt,value
2019-01-12T00:00:03.296Z,96.6
2019-01-12T00:01:03.473Z,98
2019-01-12T00:02:02.745Z,94.9
2019-01-12T00:03:03.696Z,95.6
2019-01-12T00:04:03.306Z,96.3
2019-01-12T00:05:03.379Z,95.6
2019-01-12T00:06:02.820Z,95.9
2019-01-12T00:07:02.844Z,95.9
2019-01-12T00:08:03.459Z,95.2
2019-01-12T00:09:03.081Z,94
2019-01-12T00:10:02.821Z,96.1
2019-01-12T00:11:02.979Z,96.6
2019-01-12T00:12:02.980Z,97.7
2019-01-12T00:13:03.249Z,98.9
2019-01-12T00:14:03.595Z,98.9
2019-01-12T00:15:02.734Z,99.4
2019-01-12T00:16:03.582Z,99.6
2019-01-12T00:17:03.305Z,99.6
2019-01-12T00:18:02.750Z,99.6
2019-01-12T00:19:03.535Z,99.8
2019-01-12T00:20:03.183Z,98.2
2019-01-12T00:21:02.923Z,99.1
2019-01-12T00:22:02.999Z,98
2019-01-12T00:23:03.104Z,98
2019-01-12T00:24:03.313Z,96.3
2019-01-12T00:25:03.557Z,97.3
2019-01-12T00:26:02.890Z,95.4
2019-01-12T00:27:03.172Z,95.9
2019-01-12T00:28:03.565Z,95.9
2019-01-12T00:29:02.621Z,97
2019-01-12T00:30:03.445Z,94.9
2019-01-12T00:31:03.151Z,95.4
2019-01-12T00:32:03.169Z,95.6
2019-01-12T00:33:03.340Z,96.6
2019-01-12T00:34:03.186Z,93.8
2019-01-12T00:35:03.447Z,95.2
2019-01-12T00:36:03.119Z,93.5
2019-01-12T00:37:03.595Z,93.1
2019-01-12T00:38:03.041Z,92.4
2019-01-12T00:39:03.349Z,91
2019-01-12T00:40:03.308Z,92.1
2019-01-12T00:41:03.457Z,92.8
2019-01-12T00:42:02.736Z,92.8
2019-01-12T00:43:03.453Z,93.5
2019-01-12T00:44:03.287Z,92.8
2019-01-12T00:45:03.656Z,93.1
2019-01-12T00:46:02.959Z,93.5
2019-01-12T00:47:02.973Z,91.7
2019-01-12T00:48:02.994Z,92.8
2019-01-12T00:49:02.842Z,91.2
2019-01-12T00:50:03.359Z,91.4
2019-01-12T00:51:02.947Z,91.2
2019-01-12T00:52:03.531Z,91.7
2019-01-12T00:53:02.971Z,90.5
2019-01-12T00:54:02.951Z,90.3
2019-01-12T00:55:03.068Z,89.8
2019-01-12T00:56:03.614Z,89.1
2019-01-12T00:57:03.124Z,88.4
2019-01-12T00:58:03.454Z,87.9
2019-01-12T00:59:02.809Z,88.2
2019-01-12T01:00:03.226Z,86.1
2019-01-12T01:01:02.866Z,87.5
2019-01-12T01:02:03.614Z,86.5
2019-01-12T01:03:03.274Z,85.6
2019-01-12T01:04:03.524Z,87
2019-01-12T01:05:03.147Z,86.5
2019-01-12T01:06:02.727Z,87.2
2019-01-12T01:07:02.894Z,88.6
2019-01-12T01:08:03.269Z,88.9
2019-01-12T01:09:02.696Z,89.6
2019-01-12T01:10:03.080Z,89.3
2019-01-12T01:11:03.583Z,87.2
2019-01-12T01:12:02.863Z,88.6
2019-01-12T01:13:03.021Z,87.2
2019-01-12T01:14:02.754Z,88.9
2019-01-12T01:15:03.163Z,88.9
2019-01-12T01:16:03.414Z,88.9
2019-01-12T01:17:02.993Z,89.6
2019-01-12T01:18:03.199Z,89.8
2019-01-12T01:19:03.108Z,90.7
2019-01-12T01:20:03.173Z,90.5
2019-01-12T01:21:03.582Z,89.8
2019-01-12T01:22:03.306Z,92.6
2019-01-12T01:23:02.920Z,93.5
2019-01-12T01:24:02.875Z,91.4
2019-01-12T01:25:03.208Z,94.9
2019-01-12T01:26:02.984Z,94
2019-01-12T01:27:03.638Z,94.2
2019-01-12T01:28:03.176Z,94.2
2019-01-12T01:29:03.381Z,93.8
2019-01-12T01:30:03.523Z,93.5
2019-01-12T01:31:03.357Z,92.6
2019-01-12T01:32:02.722Z,93.1
2019-01-12T01:33:03.579Z,92.8
2019-01-12T01:34:03.276Z,91.7
2019-01-12T01:35:03.612Z,91
2019-01-12T01:36:03.158Z,91
2019-01-12T01:37:02.718Z,90.7
2019-01-12T01:38:03.423Z,93.3
2019-01-12T01:39:02.949Z,92.8
2019-01-12T01:40:02.813Z,91.9
2019-01-12T01:41:03.589Z,93.3
2019-01-12T01:42:03.711Z,94.9
2019-01-12T01:43:03.177Z,92.6
2019-01-12T01:44:03.583Z,93.5
2019-01-12T01:45:03.206Z,93.5
2019-01-12T01:46:03.417Z,94.7
2019-01-12T01:47:02.619Z,94.7
2019-01-12T01:48:03.640Z,96.3
2019-01-12T01:49:02.674Z,96.8
2019-01-12T01:50:03.440Z,99.1
2019-01-12T01:51:03.667Z,99.6
2019-01-12T01:52:03.240Z,99.1
2019-01-12T01:53:02.830Z,99.8
2019-01-12T01:54:03.450Z,99.8
2019-01-12T01:55:03.828Z,101.2
2019-01-12T01:56:03.253Z,100.5
2019-01-12T01:57:03.348Z,100.3
2019-01-12T01:58:02.961Z,101.2
2019-01-12T01:59:03.585Z,102.2
2019-01-12T02:00:02.952Z,102.4
2019-01-12T02:01:03.488Z,102.6
2019-01-12T02:02:02.838Z,103.6
2019-01-12T02:03:03.646Z,102.9
2019-01-12T02:04:03.535Z,103.1
2019-01-12T02:05:03.136Z,102.6
2019-01-12T02:06:03.737Z,101.9
2019-01-12T02:07:02.969Z,101.7
2019-01-12T02:08:03.644Z,101.9
2019-01-12T02:09:02.677Z,101.2
2019-01-12T02:10:03.342Z,102.9
2019-01-12T02:11:03.548Z,102.9
2019-01-12T02:12:03.020Z,103.6
2019-01-12T02:13:03.122Z,102.9
2019-01-12T02:14:02.916Z,101
2019-01-12T02:15:03.201Z,102.6
2019-01-12T02:16:02.635Z,102.9
2019-01-12T02:17:03.269Z,101.5
2019-01-12T02:18:03.494Z,102.2
2019-01-12T02:19:02.689Z,103.3
2019-01-12T02:20:03.734Z,102.2
2019-01-12T02:21:02.971Z,101
2019-01-12T02:22:03.192Z,103.1
2019-01-12T02:23:02.794Z,101.2
2019-01-12T02:24:03.009Z,99.4
2019-01-12T02:25:03.673Z,101
2019-01-12T02:26:03.223Z,99.4
2019-01-12T02:27:03.324Z,99.6
2019-01-12T02:28:02.933Z,100.3
2019-01-12T02:29:03.386Z,99.4
2019-01-12T02:30:02.971Z,100.3
2019-01-12T02:31:03.196Z,101
2019-01-12T02:32:03.342Z,99.6
2019-01-12T02:33:03.605Z,103.1
2019-01-12T02:34:02.859Z,101.9
2019-01-12T02:35:03.475Z,103.6
2019-01-12T02:36:03.672Z,101.9
2019-01-12T02:37:03.514Z,101
2019-01-12T02:38:03.276Z,101.5
2019-01-12T02:39:03.464Z,101.5
2019-01-12T02:40:03.473Z,98.9
2019-01-12T02:41:03.213Z,100.1
2019-01-12T02:42:02.791Z,100.8
2019-01-12T02:43:03.584Z,99.8
2019-01-12T02:44:03.031Z,100.8
2019-01-12T02:45:03.194Z,100.1
2019-01-12T02:46:03.591Z,101.9
2019-01-12T02:47:03.423Z,99.6
2019-01-12T02:48:03.021Z,100.8
2019-01-12T02:49:03.155Z,98.4
2019-01-12T02:50:02.664Z,99.6
2019-01-12T02:51:02.559Z,98.4
2019-01-12T02:52:02.892Z,98.7
2019-01-12T02:53:03.684Z,97
2019-01-12T02:54:02.899Z,97
2019-01-12T02:55:09.482Z,97.7
2019-01-12T02:56:02.841Z,96.8
2019-01-12T02:57:03.581Z,96.1
2019-01-12T02:58:02.924Z,95.9
2019-01-12T02:59:03.611Z,95.9
2019-01-12T03:00:03.119Z,96.1
2019-01-12T03:01:01.760Z,96.1
2019-01-12T03:02:03.648Z,94
2019-01-12T03:03:02.963Z,95.9
2019-01-12T03:04:03.644Z,96.1
2019-01-12T03:05:02.932Z,97
2019-01-12T03:06:03.516Z,98.4
2019-01-12T03:07:02.942Z,98.7
2019-01-12T03:08:03.107Z,99.8
2019-01-12T03:09:02.688Z,98
2019-01-12T03:10:02.822Z,97.7
2019-01-12T03:11:02.562Z,98.7
2019-01-12T03:12:03.155Z,96.8
2019-01-12T03:13:02.753Z,97.5
2019-01-12T03:14:03.115Z,97.7
2019-01-12T03:15:02.928Z,98.2
2019-01-12T03:16:03.439Z,97.5
2019-01-12T03:17:03.017Z,96.8
2019-01-12T03:18:03.562Z,96.3
2019-01-12T03:19:03.611Z,97.3
2019-01-12T03:20:04.086Z,95.2
2019-01-12T03:21:03.571Z,95.2
2019-01-12T03:22:03.187Z,95.4
2019-01-12T03:23:02.833Z,95.4
2019-01-12T03:24:03.687Z,94.7
2019-01-12T03:25:03.206Z,97
2019-01-12T03:26:03.098Z,94.9
2019-01-12T03:27:03.030Z,95.6
2019-01-12T03:28:03.091Z,95.9
2019-01-12T03:29:02.832Z,95.6
2019-01-12T03:30:03.110Z,94.7
2019-01-12T03:31:03.028Z,95.9
2019-01-12T03:32:02.819Z,94.2
2019-01-12T03:33:02.949Z,94.2
2019-01-12T03:34:02.906Z,94.5
2019-01-12T03:35:02.830Z,94.2
2019-01-12T03:36:03.246Z,93.1
2019-01-12T03:37:03.068Z,92.6
2019-01-12T03:38:02.871Z,94.9
2019-01-12T03:39:03.515Z,93.3
2019-01-12T03:40:03.369Z,94
2019-01-12T03:41:03.641Z,92.6
2019-01-12T03:42:03.579Z,94.2
2019-01-12T03:43:03.091Z,94
2019-01-12T03:44:02.953Z,95.2
2019-01-12T03:45:03.636Z,94.5
2019-01-12T03:46:03.330Z,94.7
2019-01-12T03:47:02.873Z,93.1
2019-01-12T03:48:03.230Z,92.6
2019-01-12T03:49:03.388Z,93.5
2019-01-12T03:50:03.166Z,92.4
2019-01-12T03:51:03.232Z,92.6
2019-01-12T03:52:03.200Z,94.2
2019-01-12T03:53:03.588Z,93.8
2019-01-12T03:54:02.803Z,92.8
2019-01-12T03:55:03.730Z,94.9
2019-01-12T03:56:03.191Z,93.5
2019-01-12T03:57:02.652Z,94.9
2019-01-12T03:58:03.009Z,95.4
2019-01-12T03:59:03.337Z,92.1
2019-01-12T04:00:03.844Z,94.2
2019-01-12T04:01:02.711Z,94.7
2019-01-12T04:02:03.637Z,92.4
2019-01-12T04:03:03.214Z,91.9
2019-01-12T04:04:03.526Z,92.6
2019-01-12T04:05:03.546Z,91.2
2019-01-12T04:06:03.363Z,91
2019-01-12T04:07:03.515Z,90.3
2019-01-12T04:08:03.082Z,91.2
2019-01-12T04:09:03.279Z,90.7
2019-01-12T04:10:03.088Z,90.7
2019-01-12T04:11:03.234Z,90.5
2019-01-12T04:12:02.823Z,90.3
2019-01-12T04:13:03.202Z,89.3
2019-01-12T04:14:02.891Z,91.7
2019-01-12T04:15:03.458Z,90.3
2019-01-12T04:16:03.479Z,91
2019-01-12T04:17:03.318Z,91.2
2019-01-12T04:18:02.758Z,90.7
2019-01-12T04:19:03.716Z,91.7
2019-01-12T04:20:03.657Z,89.1
2019-01-12T04:21:02.967Z,90.5
2019-01-12T04:22:03.654Z,91.7
2019-01-12T04:23:02.829Z,91.2
2019-01-12T04:24:03.118Z,91.2
2019-01-12T04:25:03.463Z,90.5
2019-01-12T04:26:03.184Z,90.7
2019-01-12T04:27:03.472Z,90.7
2019-01-12T04:28:03.228Z,91.7
2019-01-12T04:29:03.147Z,91
2019-01-12T04:30:03.187Z,90.7
2019-01-12T04:31:02.873Z,91.9
2019-01-12T04:32:03.536Z,91.7
2019-01-12T04:33:03.240Z,91.4
2019-01-12T04:34:03.543Z,92.8
2019-01-12T04:35:03.646Z,92.4
2019-01-12T04:36:03.046Z,93.8
2019-01-12T04:37:03.154Z,93.5
2019-01-12T04:38:03.120Z,94.5
2019-01-12T04:39:03.315Z,93.8
2019-01-12T04:40:03.399Z,92.6
2019-01-12T04:41:03.182Z,93.1
2019-01-12T04:42:03.056Z,93.3
2019-01-12T04:43:02.929Z,93.3
2019-01-12T04:44:02.736Z,91.2
2019-01-12T04:45:03.119Z,93.1
2019-01-12T04:46:03.111Z,91
2019-01-12T04:47:03.416Z,91.9
2019-01-12T04:48:02.760Z,92.6
2019-01-12T04:49:03.135Z,92.4
2019-01-12T04:50:03.023Z,91.2
2019-01-12T04:51:02.915Z,91.2
2019-01-12T04:52:02.984Z,91.7
2019-01-12T04:53:03.167Z,91.4
2019-01-12T04:54:02.814Z,91.2
2019-01-12T04:55:02.878Z,91.7
2019-01-12T04:56:03.039Z,91
2019-01-12T04:57:02.809Z,91.9
2019-01-12T04:58:02.746Z,93.5
2019-01-12T04:59:03.169Z,91
2019-01-12T05:00:03.123Z,92.6
2019-01-12T05:01:03.202Z,94
2019-01-12T05:02:03.642Z,92.8
2019-01-12T05:03:03.285Z,92.8
2019-01-12T05:04:02.888Z,93.1
2019-01-12T05:05:03.065Z,92.1
2019-01-12T05:06:02.728Z,92.1
2019-01-12T05:07:03.071Z,92.8
2019-01-12T05:08:03.458Z,92.6
2019-01-12T05:09:03.167Z,92.8
2019-01-12T05:10:03.713Z,93.8
2019-01-12T05:11:03.700Z,93.3
2019-01-12T05:12:03.600Z,94
2019-01-12T05:13:02.982Z,91.9
2019-01-12T05:14:02.809Z,91.7
2019-01-12T05:15:03.290Z,90.3
2019-01-12T05:16:03.453Z,91
2019-01-12T05:17:03.025Z,90.5
2019-01-12T05:18:03.293Z,92.4
2019-01-12T05:19:02.854Z,92.4
2019-01-12T05:20:03.042Z,91.2
2019-01-12T05:21:03.155Z,92.8
2019-01-12T05:22:03.553Z,91.4
2019-01-12T05:23:03.097Z,91.7
2019-01-12T05:24:03.727Z,91.2
2019-01-12T05:25:03.333Z,91.7
2019-01-12T05:26:02.712Z,90.5
2019-01-12T05:27:02.879Z,91.4
2019-01-12T05:28:03.094Z,90.7
2019-01-12T05:29:02.874Z,90.5
2019-01-12T05:30:02.878Z,91
2019-01-12T05:31:03.237Z,90
2019-01-12T05:32:03.470Z,91
2019-01-12T05:33:02.846Z,90.3
2019-01-12T05:34:03.533Z,90.5
2019-01-12T05:35:02.707Z,90.3
2019-01-12T05:36:02.933Z,91.2
2019-01-12T05:37:03.221Z,90.5
2019-01-12T05:38:02.776Z,89.6
2019-01-12T05:39:02.757Z,91.2
2019-01-12T05:40:03.782Z,89.6
2019-01-12T05:41:02.850Z,90
2019-01-12T05:42:03.328Z,91.9
2019-01-12T05:43:03.340Z,91.7
2019-01-12T05:44:03.005Z,91
2019-01-12T05:45:03.482Z,91.9
2019-01-12T05:46:02.937Z,91.7
2019-01-12T05:47:03.108Z,90.5
2019-01-12T05:48:03.040Z,91.9
2019-01-12T05:49:03.777Z,91.9
2019-01-12T05:50:03.093Z,91.2
2019-01-12T05:51:03.387Z,91.7
2019-01-12T05:52:03.083Z,92.1
2019-01-12T05:53:03.139Z,91.9
2019-01-12T05:54:03.008Z,92.1
2019-01-12T05:55:03.330Z,92.1
2019-01-12T05:56:02.922Z,92.1
2019-01-12T05:57:02.993Z,91
2019-01-12T05:58:02.931Z,91
2019-01-12T05:59:02.881Z,93.5
2019-01-12T06:00:03.587Z,91.9
2019-01-12T06:01:03.049Z,92.6
2019-01-12T06:02:02.822Z,94.2
2019-01-12T06:03:03.489Z,93.8
2019-01-12T06:04:03.204Z,95.2
2019-01-12T06:05:03.372Z,94.5
2019-01-12T06:06:03.477Z,94.7
2019-01-12T06:07:03.399Z,95.2
2019-01-12T06:08:03.158Z,94.5
2019-01-12T06:09:03.389Z,93.1
2019-01-12T06:10:03.082Z,94.2
2019-01-12T06:11:03.672Z,94
2019-01-12T06:12:02.980Z,94.5
2019-01-12T06:13:03.361Z,94
2019-01-12T06:14:03.327Z,95.2
2019-01-12T06:15:02.966Z,94.7
2019-01-12T06:16:02.806Z,94.2
2019-01-12T06:17:02.823Z,94.2
2019-01-12T06:18:03.773Z,93.8
2019-01-12T06:19:03.227Z,92.8
2019-01-12T06:20:03.142Z,92.8
2019-01-12T06:21:03.131Z,94.5
2019-01-12T06:22:02.765Z,92.8
2019-01-12T06:23:02.601Z,95.6
2019-01-12T06:24:03.446Z,94.5
2019-01-12T06:25:03.349Z,96.1
2019-01-12T06:26:04.461Z,94.2
2019-01-12T06:27:03.150Z,93.5
2019-01-12T06:28:03.022Z,96.3
2019-01-12T06:29:03.078Z,95.4
2019-01-12T06:30:03.475Z,95.6
2019-01-12T06:31:03.639Z,94.9
2019-01-12T06:32:03.491Z,95.2
2019-01-12T06:33:02.912Z,94
2019-01-12T06:34:02.733Z,93.5
2019-01-12T06:35:02.874Z,93.3
2019-01-12T06:36:03.496Z,94.5
2019-01-12T06:37:03.074Z,94.5
2019-01-12T06:38:02.886Z,94.2
2019-01-12T06:39:03.480Z,94
2019-01-12T06:40:03.539Z,94.5
2019-01-12T06:41:03.559Z,91.9
2019-01-12T06:42:02.896Z,94
2019-01-12T06:43:03.465Z,94
2019-01-12T06:44:02.672Z,90.5
2019-01-12T06:45:03.021Z,93.1
2019-01-12T06:46:03.213Z,91.9
2019-01-12T06:47:03.524Z,91
2019-01-12T06:48:03.612Z,91.4
2019-01-12T06:49:03.464Z,92.1
2019-01-12T06:50:03.644Z,91.4
2019-01-12T06:51:02.904Z,92.4
2019-01-12T06:52:03.492Z,90.5
2019-01-12T06:53:03.404Z,91.2
2019-01-12T06:54:02.942Z,91.2
2019-01-12T06:55:03.644Z,91.2
2019-01-12T06:56:02.866Z,93.1
2019-01-12T06:57:02.808Z,92.1
2019-01-12T06:58:03.337Z,94
2019-01-12T06:59:03.606Z,91.9
2019-01-12T07:00:02.914Z,90.7
2019-01-12T07:01:03.173Z,89.8
2019-01-12T07:02:03.324Z,88.9
2019-01-12T07:03:03.219Z,88.2
2019-01-12T07:04:03.168Z,86.8
2019-01-12T07:05:03.646Z,86.3
2019-01-12T07:06:03.283Z,86.8
2019-01-12T07:07:03.045Z,86.8
2019-01-12T07:08:02.725Z,87.7
2019-01-12T07:09:02.804Z,87.2
2019-01-12T07:10:03.642Z,87.5
2019-01-12T07:11:03.211Z,87.2
2019-01-12T07:12:03.083Z,87
2019-01-12T07:13:03.383Z,85.8
2019-01-12T07:14:02.999Z,87.5
2019-01-12T07:15:03.565Z,85.6
2019-01-12T07:16:02.929Z,87.2
2019-01-12T07:17:03.228Z,86.3
2019-01-12T07:18:09.291Z,86.5
2019-01-12T07:19:03.129Z,85.6
2019-01-12T07:20:03.517Z,86.1
2019-01-12T07:21:02.691Z,86.1
2019-01-12T07:22:03.382Z,83.5
2019-01-12T07:23:03.038Z,84.9
2019-01-12T07:24:02.901Z,84.4
2019-01-12T07:25:03.548Z,84
2019-01-12T07:26:03.612Z,84.9
2019-01-12T07:27:03.052Z,83
2019-01-12T07:28:03.618Z,85.1
2019-01-12T07:29:03.545Z,83.7
2019-01-12T07:30:03.014Z,83.7
2019-01-12T07:31:03.507Z,83.5
2019-01-12T07:32:02.787Z,85.1
2019-01-12T07:33:02.985Z,85.4
2019-01-12T07:34:03.394Z,84.2
2019-01-12T07:35:03.006Z,84.9
2019-01-12T07:36:02.798Z,84.7
2019-01-12T07:37:03.395Z,85.4
2019-01-12T07:38:03.208Z,83.7
2019-01-12T07:39:03.125Z,84.7
2019-01-12T07:40:03.031Z,84
2019-01-12T07:41:02.919Z,84.4
2019-01-12T07:42:02.959Z,85.1
2019-01-12T07:43:03.231Z,86.1
2019-01-12T07:44:03.717Z,84.4
2019-01-12T07:45:02.675Z,86.3
2019-01-12T07:46:03.187Z,86.1
2019-01-12T07:47:03.598Z,85.8
2019-01-12T07:48:02.789Z,84.7
2019-01-12T07:49:02.583Z,85.6
2019-01-12T07:50:03.733Z,85.6
2019-01-12T07:51:03.148Z,87
2019-01-12T07:52:03.251Z,86.1
2019-01-12T07:53:02.833Z,86.8
2019-01-12T07:54:03.073Z,87.7
2019-01-12T07:55:03.613Z,86.5
2019-01-12T07:56:02.530Z,88.9
2019-01-12T07:57:03.551Z,85.4
2019-01-12T07:58:03.377Z,87.9
2019-01-12T07:59:02.847Z,86.5
2019-01-12T08:00:03.037Z,88.6
2019-01-12T08:01:03.347Z,90.7
2019-01-12T08:02:03.426Z,89.6
2019-01-12T08:03:03.357Z,92.4
2019-01-12T08:04:03.131Z,91.2
2019-01-12T08:05:03.682Z,91.7
2019-01-12T08:06:03.493Z,93.3
2019-01-12T08:07:03.480Z,90.7
2019-01-12T08:08:03.001Z,92.8
2019-01-12T08:09:02.873Z,90.7
2019-01-12T08:10:03.371Z,91.4
2019-01-12T08:11:03.739Z,92.4
2019-01-12T08:12:03.281Z,92.1
2019-01-12T08:13:03.291Z,92.4
2019-01-12T08:14:03.497Z,94.5
2019-01-12T08:15:03.058Z,93.3
2019-01-12T08:16:03.266Z,94.9
2019-01-12T08:17:03.173Z,95.9
2019-01-12T08:18:03.362Z,94.7
2019-01-12T08:19:03.272Z,96.6
2019-01-12T08:20:03.815Z,95.6
2019-01-12T08:21:02.894Z,97
2019-01-12T08:22:03.478Z,95.2
2019-01-12T08:23:02.925Z,95.6
2019-01-12T08:24:03.254Z,96.3
2019-01-12T08:25:03.665Z,94.9
2019-01-12T08:26:03.543Z,95.6
2019-01-12T08:27:03.490Z,94.9
2019-01-12T08:28:02.785Z,95.4
2019-01-12T08:29:02.795Z,93.8
2019-01-12T08:30:02.987Z,96.6
2019-01-12T08:31:02.811Z,95.2
2019-01-12T08:32:03.043Z,96.1
2019-01-12T08:33:03.868Z,94.5
2019-01-12T08:34:02.747Z,93.5
2019-01-12T08:35:03.213Z,93.3
2019-01-12T08:36:03.554Z,93.1
2019-01-12T08:37:03.151Z,92.8
2019-01-12T08:38:03.287Z,92.6
2019-01-12T08:39:02.838Z,93.3
2019-01-12T08:40:03.649Z,93.8
2019-01-12T08:41:03.277Z,93.3
2019-01-12T08:42:03.557Z,93.1
2019-01-12T08:43:03.408Z,94.2
2019-01-12T08:44:03.762Z,93.1
2019-01-12T08:45:03.347Z,93.3
2019-01-12T08:46:03.388Z,94.2
2019-01-12T08:47:03.035Z,93.3
2019-01-12T08:48:03.118Z,93.8
2019-01-12T08:49:03.817Z,93.3
2019-01-12T08:50:03.731Z,94
2019-01-12T08:51:02.932Z,93.5
2019-01-12T08:52:03.441Z,94.9
2019-01-12T08:53:02.781Z,95.2
2019-01-12T08:54:02.744Z,95.4
2019-01-12T08:55:03.277Z,95.4
2019-01-12T08:56:03.658Z,96.6
2019-01-12T08:57:03.481Z,93.1
2019-01-12T08:58:03.092Z,96.1
2019-01-12T08:59:03.385Z,94
2019-01-12T09:00:02.783Z,93.8
2019-01-12T09:01:03.303Z,94.2
2019-01-12T09:02:03.086Z,92.6
2019-01-12T09:03:03.486Z,92.4
2019-01-12T09:04:02.999Z,92.6
2019-01-12T09:05:03.330Z,93.3
2019-01-12T09:06:03.036Z,93.3
2019-01-12T09:07:03.675Z,92.8
2019-01-12T09:08:03.513Z,93.8
2019-01-12T09:09:03.413Z,92.8
2019-01-12T09:10:03.184Z,93.3
2019-01-12T09:11:03.551Z,94.5
2019-01-12T09:12:02.945Z,93.5
2019-01-12T09:13:03.011Z,95.2
2019-01-12T09:14:03.104Z,95.9
2019-01-12T09:15:03.692Z,95.4
2019-01-12T09:16:03.630Z,94.9
2019-01-12T09:17:03.027Z,97
2019-01-12T09:18:03.034Z,94.9
2019-01-12T09:19:03.593Z,97
2019-01-12T09:20:03.041Z,96.8
2019-01-12T09:21:03.606Z,96.6
2019-01-12T09:22:02.837Z,96.6
2019-01-12T09:23:03.074Z,97.7
2019-01-12T09:24:03.440Z,98.2
2019-01-12T09:25:03.247Z,98
2019-01-12T09:26:03.103Z,98.7
2019-01-12T09:27:02.902Z,99.8
2019-01-12T09:28:03.196Z,100.3
2019-01-12T09:29:03.681Z,99.4
2019-01-12T09:30:02.627Z,103.1
2019-01-12T09:31:03.571Z,101.2
2019-01-12T09:32:03.870Z,101.5
2019-01-12T09:33:02.962Z,101.9
2019-01-12T09:34:03.343Z,103.3
2019-01-12T09:35:03.749Z,104.5
2019-01-12T09:36:03.505Z,104.3
2019-01-12T09:37:03.285Z,103.6
2019-01-12T09:38:03.496Z,105.4
2019-01-12T09:39:03.121Z,103.8
2019-01-12T09:40:03.118Z,105.9
2019-01-12T09:41:03.163Z,105
2019-01-12T09:42:03.227Z,104.7
2019-01-12T09:43:03.326Z,105.2
2019-01-12T09:44:03.424Z,104
2019-01-12T09:45:03.096Z,104.5
2019-01-12T09:46:03.240Z,105.9
2019-01-12T09:47:03.005Z,105.7
2019-01-12T09:48:03.083Z,107.8
2019-01-12T09:49:02.944Z,106.6
2019-01-12T09:50:03.179Z,107.3
2019-01-12T09:51:02.976Z,104.7
2019-01-12T09:52:03.272Z,105.2
2019-01-12T09:53:03.526Z,105.2
2019-01-12T09:54:03.333Z,103.3
2019-01-12T09:55:03.551Z,103.6
2019-01-12T09:56:03.032Z,101.9
2019-01-12T09:57:02.886Z,101
2019-01-12T09:58:03.144Z,101
2019-01-12T09:59:03.438Z,101
2019-01-12T10:00:02.892Z,101.7
2019-01-12T10:01:03.571Z,102.2
2019-01-12T10:02:03.188Z,100.3
2019-01-12T10:03:03.195Z,100.3
2019-01-12T10:04:03.085Z,98.4
2019-01-12T10:05:03.767Z,99.1
2019-01-12T10:06:03.476Z,99.1
2019-01-12T10:07:02.800Z,98
2019-01-12T10:08:02.859Z,97
2019-01-12T10:09:02.740Z,98.2
2019-01-12T10:10:03.552Z,98.2
2019-01-12T10:11:02.945Z,97.7
2019-01-12T10:12:03.502Z,97.3
2019-01-12T10:13:03.725Z,96.3
2019-01-12T10:14:03.702Z,95.9
2019-01-12T10:15:03.294Z,94.5
2019-01-12T10:16:03.312Z,93.8
2019-01-12T10:17:03.067Z,94.5
2019-01-12T10:18:02.835Z,92.6
2019-01-12T10:19:02.778Z,92.6
2019-01-12T10:20:03.028Z,94.5
2019-01-12T10:21:02.673Z,92.8
2019-01-12T10:22:03.025Z,93.3
2019-01-12T10:23:03.389Z,93.8
2019-01-12T10:24:02.613Z,93.3
2019-01-12T10:25:03.129Z,92.8
2019-01-12T10:26:02.918Z,93.8
2019-01-12T10:27:03.013Z,92.6
2019-01-12T10:28:03.619Z,90.3
2019-01-12T10:29:03.323Z,91.9
2019-01-12T10:30:03.144Z,91.2
2019-01-12T10:31:02.892Z,91.2
2019-01-12T10:32:03.352Z,90.3
2019-01-12T10:33:03.058Z,90.7
2019-01-12T10:34:03.007Z,89.8
2019-01-12T10:35:03.526Z,90
2019-01-12T10:36:03.855Z,89.1
2019-01-12T10:37:02.874Z,87.9
2019-01-12T10:38:02.780Z,88.9
2019-01-12T10:39:02.931Z,88.2
2019-01-12T10:40:03.541Z,88.6
2019-01-12T10:41:03.579Z,88.4
2019-01-12T10:42:02.862Z,89.6
2019-01-12T10:43:03.698Z,87
2019-01-12T10:44:03.192Z,85.8
2019-01-12T10:45:04.883Z,86.1
2019-01-12T10:46:03.932Z,86.1
2019-01-12T10:47:02.662Z,85.1
2019-01-12T10:48:02.772Z,85.8
2019-01-12T10:49:03.091Z,85.4
2019-01-12T10:50:03.078Z,86.5
2019-01-12T10:51:03.345Z,86.1
2019-01-12T10:52:03.532Z,86.3
2019-01-12T10:53:02.929Z,86.5
2019-01-12T10:54:03.055Z,85.6
2019-01-12T10:55:03.221Z,85.4
2019-01-12T10:56:02.969Z,85.8
2019-01-12T10:57:06.023Z,84.7
2019-01-12T10:58:02.821Z,84.9
2019-01-12T10:59:02.870Z,85.8
2019-01-12T11:00:03.458Z,86.1
2019-01-12T11:01:03.215Z,87.2
2019-01-12T11:02:03.113Z,86.3
2019-01-12T11:03:03.371Z,87.9
2019-01-12T11:04:02.781Z,85.6
2019-01-12T11:05:03.554Z,88.4
2019-01-12T11:06:03.510Z,88.9
2019-01-12T11:07:03.082Z,87.7
2019-01-12T11:08:02.845Z,88.9
2019-01-12T11:09:03.355Z,87.9
2019-01-12T11:10:04.695Z,88.9
2019-01-12T11:11:02.801Z,87.5
2019-01-12T11:12:02.545Z,87.5
2019-01-12T11:13:03.224Z,87.9
2019-01-12T11:14:02.894Z,88.9
2019-01-12T11:15:03.140Z,88.4
2019-01-12T11:16:03.387Z,88.6
2019-01-12T11:17:03.239Z,90
2019-01-12T11:18:03.172Z,87
2019-01-12T11:19:02.963Z,86.8
2019-01-12T11:20:03.197Z,86.5
2019-01-12T11:21:03.584Z,86.5
2019-01-12T11:22:02.892Z,86.5
2019-01-12T11:23:03.300Z,87
2019-01-12T11:24:04.040Z,85.6
2019-01-12T11:25:03.477Z,85.4
2019-01-12T11:26:03.161Z,86.5
2019-01-12T11:27:03.357Z,85.1
2019-01-12T11:28:02.924Z,84.7
2019-01-12T11:29:03.051Z,85.4
2019-01-12T11:30:03.391Z,84.4
2019-01-12T11:31:03.130Z,84.4
2019-01-12T11:32:03.603Z,83.7
2019-01-12T11:33:03.369Z,82.8
2019-01-12T11:34:02.841Z,83
2019-01-12T11:35:03.674Z,82.8
2019-01-12T11:36:02.746Z,84.7
2019-01-12T11:37:03.303Z,81.9
2019-01-12T11:38:03.600Z,82.3
2019-01-12T11:39:03.324Z,84.9
2019-01-12T11:40:03.221Z,81.4
2019-01-12T11:41:03.411Z,82.8
2019-01-12T11:42:03.261Z,84
2019-01-12T11:43:02.890Z,83.5
2019-01-12T11:44:03.355Z,84
2019-01-12T11:45:03.435Z,84.7
2019-01-12T11:46:03.295Z,84.7
2019-01-12T11:47:02.927Z,82.8
2019-01-12T11:48:03.026Z,83.7
2019-01-12T11:49:03.444Z,80.5
2019-01-12T11:50:03.395Z,80.9
2019-01-12T11:51:02.863Z,80.2
2019-01-12T11:52:03.490Z,81.2
2019-01-12T11:53:03.415Z,81.2
2019-01-12T11:54:02.766Z,82.8
2019-01-12T11:55:03.456Z,82.8
2019-01-12T11:56:02.813Z,84.7
2019-01-12T11:57:03.317Z,84.4
2019-01-12T11:58:03.270Z,83.7
2019-01-12T11:59:03.070Z,85.1
2019-01-12T12:00:03.073Z,82.8
2019-01-12T12:01:02.833Z,84.7
2019-01-12T12:02:02.945Z,84.2
2019-01-12T12:03:03.582Z,84.7
2019-01-12T12:04:03.038Z,83.7
2019-01-12T12:05:02.951Z,85.1
2019-01-12T12:06:02.809Z,84.2
2019-01-12T12:07:03.012Z,82.6
2019-01-12T12:08:03.112Z,83.5
2019-01-12T12:09:02.819Z,81.9
2019-01-12T12:10:03.063Z,82.6
2019-01-12T12:11:03.041Z,81.4
2019-01-12T12:12:02.949Z,81.9
2019-01-12T12:13:03.281Z,80.9
2019-01-12T12:14:03.535Z,82.3
2019-01-12T12:15:03.662Z,81.4
2019-01-12T12:16:03.589Z,82.3
2019-01-12T12:17:03.475Z,82.3
2019-01-12T12:18:03.648Z,80.9
2019-01-12T12:19:03.576Z,83.3
2019-01-12T12:20:03.310Z,83.3
2019-01-12T12:21:03.614Z,83.3
2019-01-12T12:22:03.266Z,85.8
2019-01-12T12:23:03.023Z,86.1
2019-01-12T12:24:03.386Z,86.5
2019-01-12T12:25:02.970Z,86.8
2019-01-12T12:26:02.688Z,88.6
2019-01-12T12:27:02.883Z,87.7
2019-01-12T12:28:03.229Z,87.5
2019-01-12T12:29:03.653Z,86.3
2019-01-12T12:30:03.133Z,87.2
2019-01-12T12:31:03.014Z,87
2019-01-12T12:32:03.317Z,87.5
2019-01-12T12:33:02.808Z,87.7
2019-01-12T12:34:03.016Z,88.2
2019-01-12T12:35:02.823Z,87.5
2019-01-12T12:36:02.813Z,89.6
2019-01-12T12:37:02.875Z,87.7
2019-01-12T12:38:03.731Z,87
2019-01-12T12:39:03.484Z,88.9
2019-01-12T12:40:02.866Z,86.1
2019-01-12T12:41:03.463Z,86.1
2019-01-12T12:42:02.815Z,87.2
2019-01-12T12:43:03.167Z,86.8
2019-01-12T12:44:03.717Z,86.1
2019-01-12T12:45:03.932Z,86.1
2019-01-12T12:46:03.398Z,86.8
2019-01-12T12:47:03.124Z,85.1
2019-01-12T12:48:03.089Z,88.9
2019-01-12T12:49:03.520Z,86.1
2019-01-12T12:50:02.849Z,88.4
2019-01-12T12:51:02.847Z,89.1
2019-01-12T12:52:03.468Z,89.3
2019-01-12T12:53:03.024Z,90.7
2019-01-12T12:54:02.564Z,89.6
2019-01-12T12:55:03.018Z,89.3
2019-01-12T12:56:03.493Z,88.2
2019-01-12T12:57:02.982Z,88.9
2019-01-12T12:58:03.217Z,88.2
2019-01-12T12:59:03.638Z,88.9
2019-01-12T13:00:03.080Z,87
2019-01-12T13:01:03.678Z,88.9
2019-01-12T13:02:03.398Z,87
2019-01-12T13:03:02.985Z,87.5
2019-01-12T13:04:02.975Z,87.7
2019-01-12T13:05:03.352Z,87.5
2019-01-12T13:06:03.090Z,88.2
2019-01-12T13:07:03.241Z,88.9
2019-01-12T13:08:03.338Z,89.3
2019-01-12T13:09:03.203Z,89.3
2019-01-12T13:10:03.057Z,92.4
2019-01-12T13:11:03.571Z,92.4
2019-01-12T13:12:03.590Z,94.5
2019-01-12T13:13:02.993Z,92.6
2019-01-12T13:14:03.114Z,95.4
2019-01-12T13:15:02.849Z,94.2
2019-01-12T13:16:02.820Z,94.5
2019-01-12T13:17:03.529Z,95.2
2019-01-12T13:18:02.876Z,95.4
2019-01-12T13:20:53.951Z,96.1
2019-01-12T13:21:02.629Z,96.1